createdAt,value
2018-02-18T00:02:02.572Z,-2.50
2018-02-18T00:04:30.125Z,-2.50
2018-02-18T00:06:57.641Z,-2.60
2018-02-18T00:09:25.206Z,-2.60
2018-02-18T00:11:52.768Z,-2.60
2018-02-18T00:17:26.955Z,-2.60
2018-02-18T00:19:54.520Z,-2.70
2018-02-18T00:22:22.049Z,-2.70
2018-02-18T00:24:49.559Z,-2.70
2018-02-18T00:27:17.114Z,-2.70
2018-02-18T00:29:44.651Z,-2.80
2018-02-18T00:32:12.937Z,-2.80
2018-02-18T00:34:41.251Z,-2.80
2018-02-18T00:37:08.768Z,-2.90
2018-02-18T00:39:36.320Z,-2.90
2018-02-18T00:42:03.847Z,-2.90
2018-02-18T00:44:32.168Z,-3.00
2018-02-18T00:46:59.683Z,-3.00
2018-02-18T00:49:27.200Z,-3.00
2018-02-18T00:51:54.751Z,-3.00
2018-02-18T00:54:23.034Z,-3.00
2018-02-18T00:56:51.349Z,-2.90
2018-02-18T00:59:18.874Z,-2.90
2018-02-18T01:01:46.419Z,-2.90
2018-02-18T01:04:13.933Z,-2.90
2018-02-18T01:06:41.488Z,-3.00
2018-02-18T01:09:09.035Z,-3.10
2018-02-18T01:11:36.543Z,-3.00
2018-02-18T01:14:04.101Z,-3.00
2018-02-18T01:16:31.628Z,-2.90
2018-02-18T01:18:59.220Z,-2.80
2018-02-18T01:21:26.733Z,-2.80
2018-02-18T01:23:54.265Z,-2.80
2018-02-18T01:26:21.814Z,-2.70
2018-02-18T01:28:49.331Z,-2.70
2018-02-18T01:31:16.875Z,-2.70
2018-02-18T01:33:44.388Z,-2.70
2018-02-18T01:36:11.936Z,-2.70
2018-02-18T01:38:39.460Z,-2.70
2018-02-18T01:41:07.776Z,-2.70
2018-02-18T01:43:35.324Z,-2.70
2018-02-18T01:46:03.600Z,-2.70
2018-02-18T01:48:31.916Z,-2.70
2018-02-18T01:50:59.452Z,-2.70
2018-02-18T01:53:26.971Z,-2.70
2018-02-18T01:55:54.520Z,-2.80
2018-02-18T01:58:22.055Z,-2.80
2018-02-18T02:00:49.604Z,-2.80
2018-02-18T02:03:17.123Z,-2.70
2018-02-18T02:05:45.440Z,-2.70
2018-02-18T02:08:12.993Z,-2.70
2018-02-18T02:10:41.287Z,-2.70
2018-02-18T02:13:08.845Z,-2.70
2018-02-18T02:15:37.143Z,-3.00
2018-02-18T02:18:05.496Z,-3.10
2018-02-18T02:20:33.020Z,-3.20
2018-02-18T02:23:00.580Z,-3.30
2018-02-18T02:25:28.876Z,-3.60
2018-02-18T02:27:57.184Z,-3.60
2018-02-18T02:30:24.713Z,-3.70
2018-02-18T02:32:52.264Z,-3.70
2018-02-18T02:35:19.781Z,-3.80
2018-02-18T02:37:47.349Z,-3.90
2018-02-18T02:40:15.629Z,-4.10
2018-02-18T02:42:43.915Z,-4.10
2018-02-18T02:45:11.469Z,-4.10
2018-02-18T02:47:38.989Z,-3.90
2018-02-18T02:50:06.545Z,-3.70
2018-02-18T02:52:34.828Z,-3.40
2018-02-18T02:55:03.148Z,-3.30
2018-02-18T02:57:30.677Z,-3.30
2018-02-18T02:59:58.221Z,-3.20
2018-02-18T03:02:25.744Z,-3.10
2018-02-18T03:04:53.316Z,-2.90
2018-02-18T03:07:21.612Z,-3.00
2018-02-18T03:09:49.140Z,-3.10
2018-02-18T03:12:16.692Z,-3.10
2018-02-18T03:14:44.208Z,-3.10
2018-02-18T03:17:12.537Z,-3.20
2018-02-18T03:19:40.104Z,-3.20
2018-02-18T03:22:07.667Z,-3.20
2018-02-18T03:24:35.192Z,-3.30
2018-02-18T03:27:02.748Z,-3.40
2018-02-18T03:29:30.304Z,-3.40
2018-02-18T03:31:57.824Z,-3.40
2018-02-18T03:34:25.367Z,-3.40
2018-02-18T03:36:52.876Z,-3.30
2018-02-18T03:39:21.220Z,-3.30
2018-02-18T03:41:48.736Z,-3.30
2018-02-18T03:44:17.106Z,-3.50
2018-02-18T03:46:44.630Z,-3.50
2018-02-18T03:49:12.179Z,-3.50
2018-02-18T03:51:39.699Z,-3.40
2018-02-18T03:54:07.268Z,-3.40
2018-02-18T03:56:34.821Z,-3.30
2018-02-18T03:59:02.347Z,-3.30
2018-02-18T04:01:29.893Z,-3.30
2018-02-18T04:03:57.416Z,-3.30
2018-02-18T04:06:25.745Z,-3.50
2018-02-18T04:08:53.302Z,-3.50
2018-02-18T04:11:20.824Z,-3.50
2018-02-18T04:13:49.616Z,-3.50
2018-02-18T04:16:17.148Z,-3.50
2018-02-18T04:18:44.665Z,-3.50
2018-02-18T04:21:12.225Z,-3.40
2018-02-18T04:23:39.740Z,-3.50
2018-02-18T04:26:07.290Z,-3.40
2018-02-18T04:28:34.844Z,-3.30
2018-02-18T04:31:02.356Z,-3.40
2018-02-18T04:33:30.663Z,-3.40
2018-02-18T04:35:58.188Z,-3.40
2018-02-18T04:38:25.736Z,-3.50
2018-02-18T04:40:53.253Z,-3.50
2018-02-18T04:43:21.574Z,-3.70
2018-02-18T04:45:49.095Z,-3.60
2018-02-18T04:48:16.648Z,-3.80
2018-02-18T04:50:44.178Z,-3.90
2018-02-18T04:53:11.723Z,-4.00
2018-02-18T04:55:40.008Z,-3.90
2018-02-18T04:58:07.561Z,-4.00
2018-02-18T05:00:35.080Z,-3.80
2018-02-18T05:03:02.624Z,-3.70
2018-02-18T05:05:30.138Z,-3.70
2018-02-18T05:07:57.712Z,-3.60
2018-02-18T05:10:25.234Z,-3.50
2018-02-18T05:12:52.753Z,-3.50
2018-02-18T05:15:20.309Z,-3.60
2018-02-18T05:17:47.833Z,-3.60
2018-02-18T05:20:15.404Z,-3.70
2018-02-18T05:22:42.916Z,-3.70
2018-02-18T05:25:11.241Z,-3.90
2018-02-18T05:27:38.756Z,-3.90
2018-02-18T05:30:06.305Z,-4.00
2018-02-18T05:32:33.864Z,-4.20
2018-02-18T05:35:01.392Z,-4.20
2018-02-18T05:37:29.712Z,-4.00
2018-02-18T05:39:57.236Z,-4.00
2018-02-18T05:42:24.792Z,-4.00
2018-02-18T05:44:52.316Z,-3.90
2018-02-18T05:47:19.873Z,-3.80
2018-02-18T05:49:48.160Z,-3.70
2018-02-18T05:52:16.472Z,-3.60
2018-02-18T05:54:43.992Z,-3.60
2018-02-18T05:57:11.558Z,-3.50
2018-02-18T05:59:39.880Z,-3.40
2018-02-18T06:02:08.188Z,-3.50
2018-02-18T06:04:35.716Z,-3.50
2018-02-18T06:07:03.267Z,-3.50
2018-02-18T06:09:31.588Z,-3.10
2018-02-18T06:11:59.116Z,-3.10
2018-02-18T06:14:26.680Z,-2.90
2018-02-18T06:16:54.204Z,-2.80
2018-02-18T06:19:21.769Z,-2.80
2018-02-18T06:21:49.299Z,-2.90
2018-02-18T06:24:16.816Z,-2.90
2018-02-18T06:26:44.372Z,-2.80
2018-02-18T06:29:11.931Z,-2.80
2018-02-18T06:31:40.237Z,-2.80
2018-02-18T06:34:07.784Z,-2.80
2018-02-18T06:36:35.305Z,-2.80
2018-02-18T06:39:02.860Z,-2.80
2018-02-18T06:41:30.380Z,-2.70
2018-02-18T06:43:57.940Z,-2.70
2018-02-18T06:46:26.224Z,-2.80
2018-02-18T06:48:54.541Z,-2.80
2018-02-18T06:51:22.067Z,-2.80
2018-02-18T06:53:49.612Z,-2.80
2018-02-18T06:56:17.906Z,-2.70
2018-02-18T06:58:45.463Z,-2.70
2018-02-18T07:01:12.990Z,-2.60
2018-02-18T07:03:41.441Z,-2.50
2018-02-18T07:06:08.961Z,-2.50
2018-02-18T07:08:37.280Z,-2.10
2018-02-18T07:11:04.837Z,-2.10
2018-02-18T07:13:32.354Z,-1.60
2018-02-18T07:15:59.908Z,-1.00
2018-02-18T07:18:27.432Z,-0.50
2018-02-18T07:20:55.756Z,-0.10
2018-02-18T07:23:23.284Z,-0.10
2018-02-18T07:25:51.600Z,0.70
2018-02-18T07:28:19.128Z,0.70
2018-02-18T07:30:46.677Z,1.80
2018-02-18T07:33:14.216Z,2.80
2018-02-18T07:35:41.728Z,3.70
2018-02-18T07:38:09.278Z,4.20
2018-02-18T07:40:36.785Z,4.60
2018-02-18T07:43:04.332Z,4.90
2018-02-18T07:45:31.852Z,5.20
2018-02-18T07:47:59.399Z,5.40
2018-02-18T07:50:26.921Z,6.00
2018-02-18T07:52:54.468Z,6.50
2018-02-18T07:55:22.752Z,7.20
2018-02-18T07:57:50.298Z,7.20
2018-02-18T08:00:17.828Z,7.80
2018-02-18T08:02:45.376Z,8.10
2018-02-18T08:05:13.664Z,8.50
2018-02-18T08:07:42.001Z,8.80
2018-02-18T08:10:09.530Z,8.80
2018-02-18T08:12:37.880Z,9.60
2018-02-18T08:15:05.396Z,9.60
2018-02-18T08:17:33.687Z,10.50
2018-02-18T08:20:02.092Z,10.70
2018-02-18T08:22:29.621Z,10.60
2018-02-18T08:24:57.185Z,11.10
2018-02-18T08:27:24.701Z,11.60
2018-02-18T08:29:52.294Z,12.10
2018-02-18T08:32:19.864Z,12.60
2018-02-18T08:34:47.390Z,12.80
2018-02-18T08:37:14.951Z,12.80
2018-02-18T08:39:42.472Z,12.90
2018-02-18T08:42:10.026Z,12.70
2018-02-18T08:44:38.324Z,11.40
2018-02-18T08:47:05.890Z,11.40
2018-02-18T08:49:34.176Z,12.50
2018-02-18T08:52:02.504Z,13.30
2018-02-18T08:54:30.029Z,13.30
2018-02-18T08:56:57.588Z,12.90
2018-02-18T08:59:25.151Z,13.30
2018-02-18T09:01:52.713Z,12.80
2018-02-18T09:04:20.261Z,12.10
2018-02-18T09:06:47.831Z,12.50
2018-02-18T09:09:15.362Z,11.90
2018-02-18T09:11:43.712Z,12.00
2018-02-18T09:14:11.240Z,12.00
2018-02-18T09:16:39.532Z,12.10
2018-02-18T09:19:07.868Z,11.20
2018-02-18T09:21:35.393Z,11.10
2018-02-18T09:24:03.712Z,12.40
2018-02-18T09:26:31.251Z,12.40
2018-02-18T09:28:59.573Z,13.20
2018-02-18T09:31:27.097Z,13.20
2018-02-18T09:33:54.656Z,12.80
2018-02-18T09:36:22.216Z,12.70
2018-02-18T09:38:49.740Z,12.60
2018-02-18T09:41:17.292Z,13.50
2018-02-18T09:43:44.863Z,14.00
2018-02-18T09:46:13.152Z,13.60
2018-02-18T09:48:40.680Z,13.60
2018-02-18T09:51:08.228Z,13.90
2018-02-18T09:53:35.748Z,14.00
2018-02-18T09:56:03.300Z,14.60
2018-02-18T09:58:30.824Z,14.20
2018-02-18T10:00:59.144Z,13.20
2018-02-18T10:03:26.758Z,13.20
2018-02-18T10:05:54.302Z,13.00
2018-02-18T10:08:21.829Z,13.70
2018-02-18T10:10:49.393Z,13.80
2018-02-18T10:13:16.915Z,13.70
2018-02-18T10:15:44.500Z,13.60
2018-02-18T10:18:12.088Z,13.80
2018-02-18T10:20:39.616Z,14.20
2018-02-18T10:23:07.208Z,14.10
2018-02-18T10:25:34.734Z,13.10
2018-02-18T10:28:03.049Z,11.60
2018-02-18T10:30:30.607Z,11.60
2018-02-18T10:32:58.888Z,11.20
2018-02-18T10:35:26.440Z,11.20
2018-02-18T10:37:53.964Z,11.00
2018-02-18T10:40:21.516Z,10.90
2018-02-18T10:42:49.037Z,11.00
2018-02-18T10:45:16.593Z,11.60
2018-02-18T10:47:44.109Z,11.80
2018-02-18T10:50:11.664Z,12.00
2018-02-18T10:52:39.189Z,12.40
2018-02-18T10:55:06.764Z,12.10
2018-02-18T10:57:34.284Z,12.50
2018-02-18T11:00:01.844Z,12.90
2018-02-18T11:02:30.201Z,12.70
2018-02-18T11:04:57.752Z,12.60
2018-02-18T11:07:26.041Z,12.90
2018-02-18T11:09:53.607Z,12.80
2018-02-18T11:12:21.924Z,12.30
2018-02-18T11:14:50.332Z,12.40
2018-02-18T11:17:17.864Z,12.40
2018-02-18T11:19:46.156Z,12.30
2018-02-18T11:22:13.707Z,12.30
2018-02-18T11:24:41.232Z,10.80
2018-02-18T11:27:08.782Z,9.30
2018-02-18T11:29:36.305Z,8.10
2018-02-18T11:32:03.861Z,7.60
2018-02-18T11:34:31.409Z,7.20
2018-02-18T11:36:58.958Z,6.80
2018-02-18T11:39:27.272Z,6.90
2018-02-18T11:41:54.797Z,6.80
2018-02-18T11:44:22.357Z,6.70
2018-02-18T11:46:49.880Z,6.80
2018-02-18T11:49:17.445Z,6.80
2018-02-18T11:51:45.724Z,6.90
2018-02-18T11:54:14.000Z,7.00
2018-02-18T11:56:41.544Z,7.00
2018-02-18T11:59:09.061Z,7.00
2018-02-18T12:01:37.380Z,7.10
2018-02-18T12:04:04.902Z,7.10
2018-02-18T12:06:32.448Z,7.10
2018-02-18T12:08:59.969Z,7.10
2018-02-18T12:11:28.337Z,7.20
2018-02-18T12:13:55.881Z,7.20
2018-02-18T12:16:23.439Z,7.10
2018-02-18T12:18:50.968Z,7.10
2018-02-18T12:21:19.292Z,7.20
2018-02-18T12:23:46.816Z,7.10
2018-02-18T12:26:14.372Z,7.10
2018-02-18T12:28:41.905Z,7.00
2018-02-18T12:31:09.516Z,7.00
2018-02-18T12:33:37.045Z,7.00
2018-02-18T12:36:04.600Z,7.10
2018-02-18T12:38:32.113Z,7.00
2018-02-18T12:40:59.668Z,6.90
2018-02-18T12:43:27.200Z,6.90
2018-02-18T12:45:54.749Z,6.90
2018-02-18T12:48:22.266Z,7.00
2018-02-18T12:50:50.584Z,6.90
2018-02-18T12:53:18.100Z,6.90
2018-02-18T12:55:45.644Z,7.00
2018-02-18T12:58:13.170Z,7.00
2018-02-18T13:00:41.493Z,6.90
2018-02-18T13:03:09.042Z,6.90
2018-02-18T13:05:36.623Z,6.80
2018-02-18T13:08:04.132Z,6.80
2018-02-18T13:10:31.683Z,6.80
2018-02-18T13:12:59.237Z,6.80
2018-02-18T13:15:26.788Z,6.90
2018-02-18T13:17:55.073Z,6.90
2018-02-18T13:20:23.394Z,6.90
2018-02-18T13:22:51.829Z,6.90
2018-02-18T13:25:19.382Z,6.80
2018-02-18T13:27:46.944Z,6.90
2018-02-18T13:30:14.500Z,6.90
2018-02-18T13:32:42.068Z,6.90
2018-02-18T13:35:09.632Z,6.90
2018-02-18T13:37:37.156Z,6.80
2018-02-18T13:40:04.696Z,6.90
2018-02-18T13:42:32.262Z,6.90
2018-02-18T13:44:59.810Z,6.90
2018-02-18T13:47:28.093Z,7.00
2018-02-18T13:49:55.636Z,6.90
2018-02-18T13:52:23.151Z,7.00
2018-02-18T13:54:50.716Z,6.90
2018-02-18T13:57:19.031Z,7.00
2018-02-18T13:59:46.582Z,7.00
2018-02-18T14:02:14.869Z,7.00
2018-02-18T14:04:43.180Z,7.10
2018-02-18T14:07:10.696Z,7.00
2018-02-18T14:09:38.258Z,7.00
2018-02-18T14:12:05.787Z,7.00
2018-02-18T14:14:33.573Z,6.90
2018-02-18T14:17:01.601Z,6.90
2018-02-18T14:19:29.120Z,6.90
2018-02-18T14:21:56.675Z,7.00
2018-02-18T14:24:24.960Z,6.80
2018-02-18T14:26:53.272Z,6.80
2018-02-18T14:29:20.826Z,6.80
2018-02-18T14:31:49.108Z,6.70
2018-02-18T14:34:16.660Z,6.70
2018-02-18T14:36:44.199Z,6.80
2018-02-18T14:39:11.748Z,6.70
2018-02-18T14:41:51.187Z,6.70
2018-02-18T14:44:30.516Z,6.70
2018-02-18T14:47:09.835Z,6.70
2018-02-18T14:49:49.297Z,6.70
2018-02-18T14:52:28.653Z,6.80
2018-02-18T14:58:06.601Z,6.80
2018-02-18T15:00:34.144Z,6.80
2018-02-18T15:03:01.656Z,6.70
2018-02-18T15:05:29.214Z,6.70
2018-02-18T15:07:56.885Z,6.60
2018-02-18T15:10:24.401Z,6.70
2018-02-18T15:12:52.708Z,6.70
2018-02-18T15:15:20.290Z,6.70
2018-02-18T15:17:47.816Z,6.70
2018-02-18T15:20:15.369Z,6.60
2018-02-18T15:22:42.890Z,6.70
2018-02-18T15:25:11.223Z,6.60
2018-02-18T15:27:38.740Z,6.60
2018-02-18T15:30:07.057Z,6.50
2018-02-18T15:32:34.581Z,6.50
2018-02-18T15:35:02.132Z,6.40
2018-02-18T15:37:29.653Z,6.30
2018-02-18T15:39:57.985Z,6.10
2018-02-18T15:42:25.512Z,6.10
2018-02-18T15:44:53.796Z,5.90
2018-02-18T15:47:21.340Z,5.90
2018-02-18T15:49:48.860Z,5.80
2018-02-18T15:52:16.458Z,5.80
2018-02-18T15:54:43.981Z,5.70
2018-02-18T15:57:11.541Z,5.70
2018-02-18T15:59:39.078Z,5.60
2018-02-18T16:02:06.630Z,5.60
2018-02-18T16:04:34.144Z,5.50
2018-02-18T16:07:01.712Z,5.50
2018-02-18T16:09:29.260Z,5.40
2018-02-18T16:11:56.778Z,5.40
2018-02-18T16:14:24.356Z,5.30
2018-02-18T16:16:51.874Z,5.30
2018-02-18T16:19:19.433Z,5.30
2018-02-18T16:21:46.956Z,5.20
2018-02-18T16:24:14.567Z,5.10
2018-02-18T16:26:42.854Z,5.10
2018-02-18T16:29:11.147Z,5.10
2018-02-18T16:31:39.463Z,5.10
2018-02-18T16:34:06.989Z,5.10
2018-02-18T16:36:34.554Z,5.10
2018-02-18T16:39:02.861Z,5.10
2018-02-18T16:41:31.174Z,5.00
2018-02-18T16:43:58.687Z,4.90
2018-02-18T16:46:26.240Z,5.00
2018-02-18T16:48:53.756Z,4.80
2018-02-18T16:51:21.373Z,4.50
2018-02-18T16:53:48.888Z,4.50
2018-02-18T16:56:16.432Z,4.40
2018-02-18T16:58:43.948Z,4.30
2018-02-18T17:01:11.497Z,4.30
2018-02-18T17:03:39.041Z,4.30
2018-02-18T17:06:06.597Z,4.30
2018-02-18T17:08:34.144Z,4.20
2018-02-18T17:11:02.432Z,4.10
2018-02-18T17:13:29.984Z,4.10
2018-02-18T17:15:57.496Z,4.00
2018-02-18T17:18:25.061Z,3.90
2018-02-18T17:20:52.606Z,3.90
2018-02-18T17:23:20.136Z,3.80
2018-02-18T17:25:47.693Z,3.70
2018-02-18T17:28:15.224Z,3.50
2018-02-18T17:30:42.776Z,3.40
2018-02-18T17:33:10.298Z,3.20
2018-02-18T17:35:37.851Z,3.00
2018-02-18T17:38:06.140Z,2.80
2018-02-18T17:40:33.692Z,2.80
2018-02-18T17:43:01.257Z,2.70
2018-02-18T17:45:29.573Z,2.50
2018-02-18T17:47:57.096Z,2.50
2018-02-18T17:50:24.651Z,2.50
2018-02-18T17:52:52.164Z,2.40
2018-02-18T17:55:19.717Z,2.30
2018-02-18T17:57:47.311Z,2.20
2018-02-18T18:00:14.865Z,2.10
2018-02-18T18:02:42.380Z,2.10
2018-02-18T18:05:10.706Z,1.90
2018-02-18T18:07:38.586Z,1.90
2018-02-18T18:10:06.109Z,1.90
2018-02-18T18:12:33.640Z,1.80
2018-02-18T18:15:01.205Z,1.80
2018-02-18T18:17:28.719Z,1.70
2018-02-18T18:19:56.269Z,1.70
2018-02-18T18:22:23.793Z,1.60
2018-02-18T18:24:52.121Z,1.40
2018-02-18T18:27:19.677Z,1.40
2018-02-18T18:29:47.202Z,1.30
2018-02-18T18:32:14.754Z,1.30
2018-02-18T18:34:42.272Z,1.30
2018-02-18T18:37:09.836Z,1.30
2018-02-18T18:39:38.148Z,1.20
2018-02-18T18:42:05.693Z,1.20
2018-02-18T18:44:33.249Z,1.20
2018-02-18T18:47:01.094Z,1.10
2018-02-18T18:49:28.683Z,1.20
2018-02-18T18:51:56.235Z,1.20
2018-02-18T18:54:23.813Z,1.20
2018-02-18T18:56:51.336Z,1.20
2018-02-18T18:59:18.862Z,1.10
2018-02-18T19:01:46.470Z,1.10
2018-02-18T19:04:13.993Z,1.00
2018-02-18T19:06:41.548Z,0.90
2018-02-18T19:09:09.100Z,0.80
2018-02-18T19:11:40.933Z,0.70
2018-02-18T19:14:08.490Z,0.70
2018-02-18T19:16:38.696Z,0.60
2018-02-18T19:19:09.600Z,0.70
2018-02-18T19:21:37.287Z,0.80
2018-02-18T19:24:04.929Z,0.90
2018-02-18T19:26:32.470Z,1.00
2018-02-18T19:29:00.954Z,1.10
2018-02-18T19:34:16.707Z,1.10
2018-02-18T19:36:44.256Z,1.10
2018-02-18T19:39:12.569Z,1.20
2018-02-18T19:41:40.129Z,1.20
2018-02-18T19:44:08.412Z,1.20
2018-02-18T19:46:36.736Z,1.30
2018-02-18T19:49:04.250Z,1.30
2018-02-18T19:51:31.798Z,1.30
2018-02-18T19:53:59.364Z,1.20
2018-02-18T19:56:26.908Z,1.00
2018-02-18T19:58:54.429Z,0.80
2018-02-18T20:01:21.980Z,0.70
2018-02-18T20:03:49.623Z,0.60
2018-02-18T20:06:17.224Z,0.60
2018-02-18T20:08:44.744Z,0.60
2018-02-18T20:11:12.276Z,0.60
2018-02-18T20:13:39.848Z,0.80
2018-02-18T20:16:07.364Z,1.00
2018-02-18T20:18:35.117Z,1.10
2018-02-18T20:21:02.666Z,1.20
2018-02-18T20:23:30.238Z,1.10
2018-02-18T20:25:57.800Z,1.10
2018-02-18T20:28:25.366Z,1.10
2018-02-18T20:30:52.981Z,1.20
2018-02-18T20:33:20.548Z,1.30
2018-02-18T20:35:48.100Z,1.30
2018-02-18T20:38:15.621Z,1.30
2018-02-18T20:40:43.177Z,1.10
2018-02-18T20:43:10.749Z,1.00
2018-02-18T20:45:38.360Z,0.70
2018-02-18T20:48:05.887Z,0.60
2018-02-18T20:50:33.400Z,0.40
2018-02-18T20:53:00.960Z,0.30
2018-02-18T20:55:28.501Z,0.20
2018-02-18T20:57:56.044Z,0.00
2018-02-18T21:00:23.572Z,-0.20
2018-02-18T21:02:51.889Z,-0.30
2018-02-18T21:05:19.420Z,-0.40
2018-02-18T21:07:46.977Z,-0.40
2018-02-18T21:10:14.537Z,-0.30
2018-02-18T21:12:42.059Z,-0.30
2018-02-18T21:15:09.605Z,-0.20
2018-02-18T21:17:37.165Z,-0.30
2018-02-18T21:20:04.784Z,-0.40
2018-02-18T21:22:32.314Z,-0.50
2018-02-18T21:24:59.888Z,-0.50
2018-02-18T21:27:27.410Z,-0.60
2018-02-18T21:29:54.943Z,-0.60
2018-02-18T21:32:22.524Z,-0.70
2018-02-18T21:34:50.039Z,-0.90
2018-02-18T21:37:17.598Z,-1.00
2018-02-18T21:39:45.131Z,-1.20
2018-02-18T21:42:12.699Z,-1.20
2018-02-18T21:44:40.237Z,-1.30
2018-02-18T21:47:07.810Z,-1.40
2018-02-18T21:49:35.332Z,-1.40
2018-02-18T21:52:03.620Z,-1.40
2018-02-18T21:54:31.173Z,-1.40
2018-02-18T21:56:58.744Z,-1.40
2018-02-18T21:59:26.276Z,-1.20
2018-02-18T22:01:53.848Z,-1.10
2018-02-18T22:04:21.368Z,-1.00
2018-02-18T22:06:48.923Z,-0.90
2018-02-18T22:09:16.466Z,-0.90
2018-02-18T22:11:43.981Z,-0.80
2018-02-18T22:14:11.540Z,-0.80
2018-02-18T22:16:39.065Z,-0.80
2018-02-18T22:19:06.622Z,-0.80
2018-02-18T22:21:34.140Z,-0.90
2018-02-18T22:24:01.692Z,-0.80
2018-02-18T22:26:29.214Z,-0.70
2018-02-18T22:28:56.824Z,-0.70
2018-02-18T22:31:24.360Z,-0.60
2018-02-18T22:33:51.918Z,-0.60
2018-02-18T22:36:19.456Z,-0.40
2018-02-18T22:38:47.041Z,-0.30
2018-02-18T22:41:14.592Z,-0.20
2018-02-18T22:43:42.153Z,-0.20
2018-02-18T22:46:09.683Z,-0.20
2018-02-18T22:48:37.237Z,-0.20
2018-02-18T22:51:04.768Z,-0.20
2018-02-18T22:53:33.087Z,-0.20
2018-02-18T22:56:00.621Z,-0.30
2018-02-18T22:58:28.945Z,-0.40
2018-02-18T23:00:56.456Z,-0.40
2018-02-18T23:03:24.003Z,-0.40
2018-02-18T23:05:52.313Z,-0.40
2018-02-18T23:08:19.875Z,-0.50
2018-02-18T23:10:47.440Z,-0.60
2018-02-18T23:13:14.974Z,-0.60
2018-02-18T23:15:42.504Z,-0.60
2018-02-18T23:18:10.068Z,-0.60
2018-02-18T23:20:49.556Z,-0.60
2018-02-18T23:23:17.880Z,-0.50
2018-02-18T23:25:45.414Z,-0.60
2018-02-18T23:28:13.744Z,-0.50
2018-02-18T23:30:41.269Z,-0.50
2018-02-18T23:33:08.821Z,-0.40
2018-02-18T23:35:36.344Z,-0.40
2018-02-18T23:38:03.944Z,-0.40
2018-02-18T23:40:31.481Z,-0.40
2018-02-18T23:42:59.804Z,-0.50
2018-02-18T23:45:27.328Z,-0.50
2018-02-18T23:47:54.889Z,-0.50
2018-02-18T23:50:22.412Z,-0.60
2018-02-18T23:52:49.936Z,-0.60
2018-02-18T23:55:17.496Z,-0.60
2018-02-18T23:57:45.034Z,-0.60
